createdAt,value
2022-11-06T00:01:01.138Z,11.98
2022-11-06T00:03:30.066Z,11.99
2022-11-06T00:06:15.830Z,11.98
2022-11-06T00:08:44.886Z,12.03
2022-11-06T00:11:18.854Z,12.06
2022-11-06T00:13:47.763Z,11.96
2022-11-06T00:16:14.751Z,11.98
2022-11-06T00:18:41.611Z,12.07
2022-11-06T00:21:12.362Z,12.05
2022-11-06T00:23:39.020Z,12.06
2022-11-06T00:26:09.409Z,12.05
2022-11-06T00:28:36.060Z,12.01
2022-11-06T00:31:03.801Z,11.98
2022-11-06T00:33:30.471Z,11.97
2022-11-06T00:35:57.074Z,12.01
2022-11-06T00:38:26.252Z,12.06
2022-11-06T00:40:55.199Z,12.02
2022-11-06T00:43:26.262Z,12.11
2022-11-06T00:46:00.470Z,12.15
2022-11-06T00:48:29.234Z,12.18
2022-11-06T00:50:55.826Z,12.16
2022-11-06T00:53:22.392Z,12.23
2022-11-06T00:55:53.897Z,12.17
2022-11-06T00:58:20.407Z,12.09
2022-11-06T01:00:49.243Z,12.13
2022-11-06T01:03:15.800Z,12.06
2022-11-06T01:05:42.376Z,12.13
2022-11-06T01:08:08.934Z,12.17
2022-11-06T01:10:37.150Z,12.17
2022-11-06T01:13:04.077Z,12.20
2022-11-06T01:15:33.008Z,12.25
2022-11-06T01:18:03.277Z,12.25
2022-11-06T01:20:29.824Z,12.24
2022-11-06T01:22:56.314Z,12.29
2022-11-06T01:25:22.824Z,12.26
2022-11-06T01:27:49.358Z,12.19
2022-11-06T01:30:15.860Z,12.27
2022-11-06T01:32:44.899Z,12.29
2022-11-06T01:35:13.804Z,12.15
2022-11-06T01:37:45.398Z,12.17
2022-11-06T01:40:12.001Z,12.13
2022-11-06T01:42:38.490Z,12.11
2022-11-06T01:45:11.416Z,12.10
2022-11-06T01:47:37.904Z,12.02
2022-11-06T01:50:07.716Z,11.95
2022-11-06T01:52:36.693Z,11.88
2022-11-06T01:55:14.790Z,11.86
2022-11-06T01:57:41.564Z,11.87
2022-11-06T02:00:08.708Z,11.87
2022-11-06T02:02:37.787Z,11.90
2022-11-06T02:05:07.006Z,11.80
2022-11-06T02:07:33.722Z,11.78
2022-11-06T02:10:00.633Z,11.80
2022-11-06T02:12:36.571Z,11.71
2022-11-06T02:15:12.170Z,11.67
2022-11-06T02:17:57.416Z,11.62
2022-11-06T02:20:28.866Z,11.59
2022-11-06T02:23:00.653Z,11.64
2022-11-06T02:25:46.002Z,11.77
2022-11-06T02:28:16.082Z,11.80
2022-11-06T02:30:44.301Z,11.83
2022-11-06T02:33:12.653Z,11.80
2022-11-06T02:35:41.208Z,11.72
2022-11-06T02:38:10.973Z,11.61
2022-11-06T02:40:42.435Z,11.66
2022-11-06T02:43:11.763Z,11.68
2022-11-06T02:45:40.058Z,11.71
2022-11-06T02:48:09.258Z,11.82
2022-11-06T02:50:39.484Z,11.78
2022-11-06T02:53:06.832Z,11.76
2022-11-06T02:56:03.511Z,11.73
2022-11-06T02:58:53.462Z,11.72
2022-11-06T03:01:27.614Z,11.76
2022-11-06T03:03:57.206Z,11.81
2022-11-06T03:06:26.161Z,11.85
2022-11-06T03:08:58.969Z,11.77
2022-11-06T03:11:26.496Z,11.75
2022-11-06T03:13:59.528Z,11.63
2022-11-06T03:16:36.424Z,11.62
2022-11-06T03:19:02.912Z,11.63
2022-11-06T03:21:37.430Z,11.69
2022-11-06T03:24:10.661Z,11.85
2022-11-06T03:26:37.634Z,11.90
2022-11-06T03:29:09.140Z,11.86
2022-11-06T03:31:41.079Z,11.91
2022-11-06T03:34:08.791Z,11.94
2022-11-06T03:36:42.022Z,12.04
2022-11-06T03:39:10.657Z,12.08
2022-11-06T03:41:48.258Z,12.10
2022-11-06T03:44:18.968Z,12.16
2022-11-06T03:46:47.354Z,12.15
2022-11-06T03:49:15.480Z,12.10
2022-11-06T03:51:46.591Z,12.10
2022-11-06T03:54:26.361Z,12.16
2022-11-06T03:56:57.490Z,12.01
2022-11-06T03:59:25.377Z,11.93
2022-11-06T04:01:52.079Z,11.85
2022-11-06T04:04:22.944Z,11.81
2022-11-06T04:06:53.994Z,11.92
2022-11-06T04:09:39.338Z,12.05
2022-11-06T04:12:27.464Z,12.12
2022-11-06T04:14:59.296Z,12.11
2022-11-06T04:17:28.741Z,12.19
2022-11-06T04:19:56.410Z,12.08
2022-11-06T04:22:34.979Z,11.96
2022-11-06T04:25:34.249Z,11.84
2022-11-06T04:28:20.055Z,11.81
2022-11-06T04:30:51.188Z,11.72
2022-11-06T04:33:25.189Z,11.73
2022-11-06T04:36:03.311Z,11.68
2022-11-06T04:38:35.694Z,11.78
2022-11-06T04:41:05.284Z,11.78
2022-11-06T04:43:44.002Z,11.75
2022-11-06T04:46:11.481Z,11.72
2022-11-06T04:48:41.171Z,11.68
2022-11-06T04:51:10.763Z,11.72
2022-11-06T04:53:37.430Z,11.77
2022-11-06T04:56:10.881Z,11.73
2022-11-06T04:58:38.459Z,11.61
2022-11-06T05:01:07.603Z,11.65
2022-11-06T05:03:34.116Z,11.69
2022-11-06T05:06:00.633Z,11.66
2022-11-06T05:08:29.538Z,11.64
2022-11-06T05:10:56.097Z,11.68
2022-11-06T05:13:23.046Z,11.72
2022-11-06T05:15:58.222Z,11.81
2022-11-06T05:18:25.263Z,11.88
2022-11-06T05:21:14.340Z,11.94
2022-11-06T05:23:43.079Z,12.01
2022-11-06T05:26:09.628Z,11.92
2022-11-06T05:28:36.159Z,11.92
2022-11-06T05:31:05.320Z,11.99
2022-11-06T05:33:32.707Z,12.03
2022-11-06T05:36:03.210Z,11.98
2022-11-06T05:38:32.474Z,11.98
2022-11-06T05:40:58.986Z,11.92
2022-11-06T05:43:25.816Z,11.84
2022-11-06T05:45:56.973Z,11.86
2022-11-06T05:48:25.582Z,11.93
2022-11-06T05:50:54.503Z,12.01
2022-11-06T05:53:23.497Z,12.06
2022-11-06T05:55:52.533Z,12.09
2022-11-06T05:58:20.082Z,12.13
2022-11-06T06:00:49.933Z,12.07
2022-11-06T06:03:16.556Z,12.10
2022-11-06T06:05:43.130Z,12.13
2022-11-06T06:08:09.595Z,12.09
2022-11-06T06:10:42.481Z,12.05
2022-11-06T06:13:11.265Z,12.07
2022-11-06T06:15:38.486Z,11.99
2022-11-06T06:18:07.704Z,12.00
2022-11-06T06:20:34.294Z,11.98
2022-11-06T06:23:00.891Z,12.02
2022-11-06T06:25:28.384Z,12.06
2022-11-06T06:27:57.396Z,12.13
2022-11-06T06:30:24.149Z,12.19
2022-11-06T06:32:51.148Z,12.23
2022-11-06T06:35:20.657Z,12.32
2022-11-06T06:37:50.968Z,12.28
2022-11-06T06:40:21.033Z,12.35
2022-11-06T06:42:47.507Z,12.26
2022-11-06T06:45:14.130Z,12.27
2022-11-06T06:47:40.693Z,12.28
2022-11-06T06:50:09.901Z,12.25
2022-11-06T06:52:36.432Z,12.29
2022-11-06T06:55:02.984Z,12.23
2022-11-06T06:57:29.462Z,12.16
2022-11-06T06:59:56.395Z,12.10
2022-11-06T07:02:22.969Z,12.06
2022-11-06T07:04:49.846Z,12.08
2022-11-06T07:07:16.483Z,12.16
2022-11-06T07:09:43.085Z,12.22
2022-11-06T07:12:09.616Z,12.17
2022-11-06T07:14:36.313Z,12.15
2022-11-06T07:17:02.838Z,12.06
2022-11-06T07:19:29.320Z,12.15
2022-11-06T07:21:57.944Z,12.25
2022-11-06T07:24:27.641Z,12.30
2022-11-06T07:26:54.151Z,12.40
2022-11-06T07:29:20.621Z,12.40
2022-11-06T07:31:47.190Z,12.38
2022-11-06T07:34:13.820Z,12.41
2022-11-06T07:36:40.346Z,12.40
2022-11-06T07:39:06.861Z,12.41
2022-11-06T07:41:33.449Z,12.35
2022-11-06T07:44:00.357Z,12.39
2022-11-06T07:46:29.404Z,12.48
2022-11-06T07:48:56.021Z,12.51
2022-11-06T07:51:22.526Z,12.58
2022-11-06T07:53:49.164Z,12.60
2022-11-06T07:56:15.682Z,12.52
2022-11-06T07:58:42.182Z,12.51
2022-11-06T08:01:17.940Z,12.51
2022-11-06T08:03:45.289Z,12.53
2022-11-06T08:06:14.211Z,12.51
2022-11-06T08:08:40.752Z,12.49
2022-11-06T08:11:10.270Z,12.40
2022-11-06T08:13:37.009Z,12.47
2022-11-06T08:16:16.123Z,12.45
2022-11-06T08:18:45.588Z,12.43
2022-11-06T08:21:12.143Z,12.48
2022-11-06T08:23:41.218Z,12.25
2022-11-06T08:26:12.734Z,12.34
2022-11-06T08:28:39.249Z,12.43
2022-11-06T08:31:09.233Z,12.45
2022-11-06T08:33:36.186Z,12.55
2022-11-06T08:36:03.683Z,12.63
2022-11-06T08:38:32.768Z,12.66
2022-11-06T08:41:03.612Z,12.72
2022-11-06T08:43:30.103Z,12.78
2022-11-06T08:45:56.667Z,12.76
2022-11-06T08:48:23.213Z,12.59
2022-11-06T08:50:54.686Z,12.68
2022-11-06T08:53:21.288Z,12.77
2022-11-06T08:55:50.339Z,12.79
2022-11-06T08:58:17.147Z,12.81
2022-11-06T09:00:43.773Z,12.91
2022-11-06T09:03:15.031Z,12.99
2022-11-06T09:05:42.863Z,13.05
2022-11-06T09:08:12.587Z,13.13
2022-11-06T09:10:39.753Z,13.17
2022-11-06T09:13:06.328Z,13.27
2022-11-06T09:15:33.064Z,13.33
2022-11-06T09:18:01.888Z,13.42
2022-11-06T09:20:30.843Z,13.53
2022-11-06T09:23:06.867Z,13.62
2022-11-06T09:25:33.474Z,13.71
2022-11-06T09:28:02.480Z,13.79
2022-11-06T09:30:30.159Z,13.85
2022-11-06T09:32:57.741Z,13.90
2022-11-06T09:35:25.075Z,13.97
2022-11-06T09:37:51.725Z,14.04
2022-11-06T09:40:18.227Z,14.10
2022-11-06T09:42:50.946Z,14.01
2022-11-06T09:45:22.881Z,13.88
2022-11-06T09:47:55.947Z,13.88
2022-11-06T09:50:25.243Z,13.97
2022-11-06T09:52:52.927Z,14.11
2022-11-06T09:55:24.772Z,14.19
2022-11-06T09:57:57.723Z,14.23
2022-11-06T10:00:24.407Z,14.41
2022-11-06T10:03:05.808Z,14.56
2022-11-06T10:05:33.722Z,14.70
2022-11-06T10:08:00.844Z,14.71
2022-11-06T10:10:39.084Z,14.79
2022-11-06T10:13:07.936Z,14.90
2022-11-06T10:15:36.930Z,15.04
2022-11-06T10:18:13.380Z,15.18
2022-11-06T10:20:47.954Z,15.33
2022-11-06T10:23:50.066Z,15.39
2022-11-06T10:26:20.062Z,15.32
2022-11-06T10:28:59.815Z,15.10
2022-11-06T10:31:26.343Z,15.00
2022-11-06T10:34:08.162Z,15.14
2022-11-06T10:36:48.716Z,15.22
2022-11-06T10:39:23.189Z,15.02
2022-11-06T10:41:58.023Z,15.07
2022-11-06T10:44:36.281Z,15.04
2022-11-06T10:47:21.698Z,15.12
2022-11-06T10:49:50.531Z,15.14
2022-11-06T10:52:28.712Z,15.11
2022-11-06T10:55:07.703Z,15.09
2022-11-06T10:57:37.459Z,15.15
2022-11-06T11:00:08.760Z,15.16
2022-11-06T11:02:36.050Z,15.16
2022-11-06T11:05:07.519Z,15.14
2022-11-06T11:07:33.999Z,15.14
2022-11-06T11:10:02.515Z,15.10
2022-11-06T11:12:32.967Z,15.11
2022-11-06T11:15:16.263Z,15.13
2022-11-06T11:18:02.959Z,15.01
2022-11-06T11:20:30.988Z,14.97
2022-11-06T11:23:16.428Z,15.05
2022-11-06T11:25:44.596Z,15.07
2022-11-06T11:28:20.997Z,14.92
2022-11-06T11:30:54.169Z,14.90
2022-11-06T11:33:26.493Z,14.90
2022-11-06T11:35:53.402Z,14.94
2022-11-06T11:38:23.005Z,14.96
2022-11-06T11:40:52.021Z,14.86
2022-11-06T11:43:22.141Z,14.94
2022-11-06T11:46:05.404Z,15.01
2022-11-06T11:49:07.565Z,15.06
2022-11-06T11:51:34.093Z,15.16
2022-11-06T11:54:06.066Z,15.12
2022-11-06T11:57:02.366Z,15.16
2022-11-06T11:59:23.085Z,15.19
2022-11-06T12:01:49.912Z,15.14
2022-11-06T12:04:18.117Z,15.18
2022-11-06T12:06:51.809Z,15.27
2022-11-06T12:09:21.050Z,15.35
2022-11-06T12:11:47.779Z,15.48
2022-11-06T12:14:33.243Z,15.61
2022-11-06T12:17:09.184Z,15.82
2022-11-06T12:19:36.065Z,15.96
2022-11-06T12:22:10.966Z,16.10
2022-11-06T12:24:47.355Z,16.13
2022-11-06T12:27:19.787Z,16.30
2022-11-06T12:29:47.897Z,16.40
2022-11-06T12:32:26.437Z,16.38
2022-11-06T12:34:52.975Z,16.33
2022-11-06T12:37:22.629Z,16.41
2022-11-06T12:40:25.030Z,16.43
2022-11-06T12:43:03.214Z,16.56
2022-11-06T12:45:38.638Z,16.74
2022-11-06T12:48:34.527Z,16.87
2022-11-06T12:51:04.590Z,16.87
2022-11-06T12:53:37.277Z,16.92
2022-11-06T12:56:24.246Z,16.86
2022-11-06T12:59:06.160Z,16.87
2022-11-06T13:01:32.855Z,16.77
2022-11-06T13:04:21.602Z,16.79
2022-11-06T13:07:07.194Z,16.77
2022-11-06T13:09:44.040Z,16.78
2022-11-06T13:12:13.630Z,16.81
2022-11-06T13:14:47.336Z,16.76
2022-11-06T13:17:13.810Z,16.75
2022-11-06T13:19:43.105Z,16.37
2022-11-06T13:22:19.042Z,16.15
2022-11-06T13:24:51.711Z,16.04
2022-11-06T13:27:44.791Z,15.93
2022-11-06T13:30:20.380Z,16.00
2022-11-06T13:33:08.357Z,16.14
2022-11-06T13:35:38.778Z,16.29
2022-11-06T13:38:08.548Z,16.39
2022-11-06T13:40:45.335Z,16.41
2022-11-06T13:43:30.816Z,16.46
2022-11-06T13:45:59.674Z,16.53
2022-11-06T13:48:37.799Z,16.53
2022-11-06T13:51:24.664Z,16.54
2022-11-06T13:53:52.891Z,16.51
2022-11-06T13:56:36.194Z,16.50
2022-11-06T13:59:10.366Z,16.51
2022-11-06T14:01:43.148Z,16.56
2022-11-06T14:04:12.758Z,16.67
2022-11-06T14:06:39.310Z,16.84
2022-11-06T14:09:09.885Z,16.97
2022-11-06T14:11:42.376Z,17.01
2022-11-06T14:14:25.911Z,17.00
2022-11-06T14:17:11.183Z,16.87
2022-11-06T14:19:37.994Z,16.71
2022-11-06T14:22:19.350Z,16.60
2022-11-06T14:24:45.940Z,16.53
2022-11-06T14:27:32.426Z,16.43
2022-11-06T14:30:03.212Z,16.25
2022-11-06T14:32:32.712Z,16.17
2022-11-06T14:35:18.164Z,16.16
2022-11-06T14:37:45.771Z,16.15
2022-11-06T14:40:12.974Z,16.15
2022-11-06T14:42:42.682Z,16.08
2022-11-06T14:45:10.564Z,16.00
2022-11-06T14:47:39.546Z,15.95
2022-11-06T14:50:07.482Z,15.85
2022-11-06T14:52:45.341Z,15.75
2022-11-06T14:55:22.083Z,15.65
2022-11-06T14:57:50.006Z,15.57
2022-11-06T15:00:35.469Z,15.48
2022-11-06T15:03:04.707Z,15.45
2022-11-06T15:05:41.998Z,15.42
2022-11-06T15:08:09.445Z,15.39
2022-11-06T15:10:42.051Z,15.29
2022-11-06T15:13:16.351Z,15.23
2022-11-06T15:15:43.759Z,15.15
2022-11-06T15:18:10.592Z,14.95
2022-11-06T15:20:39.737Z,14.63
2022-11-06T15:23:14.635Z,14.38
2022-11-06T15:25:50.379Z,14.22
2022-11-06T15:28:21.166Z,14.02
2022-11-06T15:30:48.891Z,13.97
2022-11-06T15:33:19.222Z,13.97
2022-11-06T15:35:46.543Z,13.89
2022-11-06T15:38:17.343Z,13.88
2022-11-06T15:40:43.869Z,13.86
2022-11-06T15:43:19.563Z,13.80
2022-11-06T15:45:48.887Z,13.81
2022-11-06T15:48:24.125Z,13.83
2022-11-06T15:50:50.662Z,13.88
2022-11-06T15:53:18.840Z,13.93
2022-11-06T15:55:55.042Z,13.91
2022-11-06T15:58:29.548Z,13.89
2022-11-06T16:00:59.826Z,13.88
2022-11-06T16:03:31.312Z,13.83
2022-11-06T16:06:01.948Z,13.85
2022-11-06T16:08:29.071Z,13.88
2022-11-06T16:10:58.193Z,13.89
2022-11-06T16:13:25.351Z,13.93
2022-11-06T16:15:51.919Z,13.94
2022-11-06T16:18:38.553Z,13.96
2022-11-06T16:21:09.563Z,13.95
2022-11-06T16:23:43.761Z,13.95
2022-11-06T16:26:14.162Z,13.96
2022-11-06T16:28:44.370Z,13.96
2022-11-06T16:31:13.718Z,13.92
2022-11-06T16:33:53.183Z,13.89
2022-11-06T16:36:19.710Z,13.90
2022-11-06T16:38:46.902Z,13.90
2022-11-06T16:41:35.802Z,13.90
2022-11-06T16:44:26.070Z,13.69
2022-11-06T16:47:05.212Z,13.62
2022-11-06T16:49:35.738Z,13.68
2022-11-06T16:52:04.587Z,13.75
2022-11-06T16:54:32.457Z,13.81
2022-11-06T16:57:11.059Z,13.84
2022-11-06T16:59:37.966Z,13.80
2022-11-06T17:02:05.340Z,13.77
2022-11-06T17:04:32.047Z,13.75
2022-11-06T17:06:58.635Z,13.62
2022-11-06T17:09:28.393Z,13.54
2022-11-06T17:11:58.499Z,13.42
2022-11-06T17:14:25.227Z,13.28
2022-11-06T17:16:53.409Z,13.16
2022-11-06T17:19:20.319Z,13.10
2022-11-06T17:21:47.169Z,13.06
2022-11-06T17:27:00.471Z,12.86
2022-11-06T17:29:27.336Z,12.84
2022-11-06T17:31:54.289Z,12.78
2022-11-06T17:34:20.920Z,12.73
2022-11-06T17:36:47.443Z,12.72
2022-11-06T17:39:14.104Z,12.70
2022-11-06T17:41:45.573Z,12.65
2022-11-06T17:44:12.818Z,12.62
2022-11-06T17:46:41.247Z,12.57
2022-11-06T17:49:10.492Z,12.54
2022-11-06T17:51:58.424Z,12.52
2022-11-06T17:54:30.407Z,12.52
2022-11-06T17:56:57.300Z,12.50
2022-11-06T17:59:24.224Z,12.48
2022-11-06T18:01:53.964Z,12.45
2022-11-06T18:04:21.236Z,12.43
2022-11-06T18:06:51.008Z,12.30
2022-11-06T18:09:20.342Z,12.21
2022-11-06T18:11:49.561Z,12.23
2022-11-06T18:14:18.738Z,12.20
2022-11-06T18:16:48.357Z,12.21
2022-11-06T18:19:16.649Z,12.25
2022-11-06T18:21:43.165Z,12.22
2022-11-06T18:24:09.882Z,12.21
2022-11-06T18:26:40.149Z,12.27
2022-11-06T18:29:07.164Z,12.20
2022-11-06T18:31:34.022Z,12.15
2022-11-06T18:34:00.713Z,12.14
2022-11-06T18:36:27.219Z,12.17
2022-11-06T18:38:53.771Z,12.19
2022-11-06T18:41:21.134Z,12.21
2022-11-06T18:43:47.802Z,12.22
2022-11-06T18:46:17.843Z,12.27
2022-11-06T18:48:44.598Z,12.29
2022-11-06T18:51:33.354Z,12.30
2022-11-06T18:54:04.674Z,12.29
2022-11-06T18:56:31.596Z,12.28
2022-11-06T18:58:58.111Z,12.27
2022-11-06T19:01:25.827Z,12.27
2022-11-06T19:03:52.543Z,12.27
2022-11-06T19:06:21.982Z,12.28
2022-11-06T19:08:50.609Z,12.31
2022-11-06T19:11:17.766Z,12.34
2022-11-06T19:13:48.007Z,12.29
2022-11-06T19:16:15.612Z,12.34
2022-11-06T19:18:44.747Z,12.39
2022-11-06T19:21:13.760Z,12.45
2022-11-06T19:23:41.192Z,12.52
2022-11-06T19:26:30.071Z,12.57
2022-11-06T19:28:57.407Z,12.62
2022-11-06T19:31:28.955Z,12.67
2022-11-06T19:33:56.424Z,12.68
2022-11-06T19:36:25.724Z,12.66
2022-11-06T19:38:52.886Z,12.62
2022-11-06T19:41:19.998Z,12.57
2022-11-06T19:43:49.012Z,12.51
2022-11-06T19:46:23.881Z,12.46
2022-11-06T19:48:58.592Z,12.40
2022-11-06T19:51:26.004Z,12.36
2022-11-06T19:53:53.336Z,12.29
2022-11-06T19:56:20.082Z,12.27
2022-11-06T19:58:48.525Z,12.18
2022-11-06T20:01:18.268Z,12.10
2022-11-06T20:03:47.667Z,12.03
2022-11-06T20:06:17.027Z,11.99
2022-11-06T20:08:43.894Z,11.94
2022-11-06T20:11:16.489Z,11.91
2022-11-06T20:13:45.841Z,11.88
2022-11-06T20:16:16.390Z,11.88
2022-11-06T20:18:43.914Z,11.87
2022-11-06T20:21:11.044Z,11.87
2022-11-06T20:23:37.855Z,11.83
2022-11-06T20:26:04.962Z,11.78
2022-11-06T20:28:34.273Z,11.76
2022-11-06T20:31:04.602Z,11.75
2022-11-06T20:33:33.603Z,11.60
2022-11-06T20:36:08.090Z,11.39
2022-11-06T20:38:34.695Z,11.28
2022-11-06T20:41:01.264Z,11.32
2022-11-06T20:43:27.785Z,11.35
2022-11-06T20:45:54.442Z,11.43
2022-11-06T20:48:20.932Z,11.46
2022-11-06T20:51:00.226Z,11.54
2022-11-06T20:53:29.362Z,11.48
2022-11-06T20:56:01.293Z,11.32
2022-11-06T20:58:28.372Z,11.27
2022-11-06T21:01:07.449Z,11.28
2022-11-06T21:03:34.273Z,11.30
2022-11-06T21:06:03.353Z,11.31
2022-11-06T21:08:31.427Z,11.32
2022-11-06T21:11:05.934Z,11.32
2022-11-06T21:13:35.739Z,11.35
2022-11-06T21:16:06.121Z,11.34
2022-11-06T21:18:34.683Z,11.35
2022-11-06T21:21:02.464Z,11.34
2022-11-06T21:23:29.063Z,11.35
2022-11-06T21:25:55.591Z,11.37
2022-11-06T21:28:24.276Z,11.39
2022-11-06T21:30:50.848Z,11.42
2022-11-06T21:33:19.468Z,11.34
2022-11-06T21:35:46.088Z,11.15
2022-11-06T21:38:12.709Z,11.12
2022-11-06T21:40:41.519Z,11.18
2022-11-06T21:43:08.085Z,11.21
2022-11-06T21:45:35.062Z,11.27
2022-11-06T21:48:01.696Z,11.31
2022-11-06T21:50:30.260Z,11.35
2022-11-06T21:53:15.402Z,11.39
2022-11-06T21:56:00.823Z,11.41
2022-11-06T21:58:29.463Z,11.45
2022-11-06T22:00:56.093Z,11.46
2022-11-06T22:03:22.723Z,11.45
2022-11-06T22:05:49.330Z,11.39
2022-11-06T22:08:16.164Z,11.34
2022-11-06T22:10:45.478Z,11.34
2022-11-06T22:13:12.405Z,11.35
2022-11-06T22:15:41.781Z,11.38
2022-11-06T22:18:11.677Z,11.36
2022-11-06T22:20:38.427Z,11.32
2022-11-06T22:23:05.072Z,11.28
2022-11-06T22:25:31.582Z,11.24
2022-11-06T22:27:58.167Z,11.20
2022-11-06T22:30:26.838Z,11.15
2022-11-06T22:32:53.354Z,11.10
2022-11-06T22:35:19.946Z,11.09
2022-11-06T22:37:46.530Z,11.06
2022-11-06T22:40:13.051Z,11.06
2022-11-06T22:42:42.152Z,11.06
2022-11-06T22:45:11.290Z,11.07
2022-11-06T22:47:40.201Z,11.08
2022-11-06T22:50:06.911Z,11.11
2022-11-06T22:52:33.470Z,11.16
2022-11-06T22:54:59.978Z,11.21
2022-11-06T22:57:26.554Z,11.28
2022-11-06T22:59:53.459Z,11.26
2022-11-06T23:02:20.137Z,11.31
2022-11-06T23:04:49.185Z,11.39
2022-11-06T23:07:15.719Z,11.46
2022-11-06T23:09:44.275Z,11.48
2022-11-06T23:12:10.768Z,11.51
2022-11-06T23:14:39.768Z,11.57
2022-11-06T23:17:06.432Z,11.57
2022-11-06T23:19:33.135Z,11.55
2022-11-06T23:22:29.040Z,11.54
2022-11-06T23:24:56.114Z,11.56
2022-11-06T23:27:23.819Z,11.55
2022-11-06T23:30:00.349Z,11.54
2022-11-06T23:32:32.661Z,11.58
2022-11-06T23:34:59.333Z,11.57
2022-11-06T23:37:25.998Z,11.53
2022-11-06T23:39:55.010Z,11.53
2022-11-06T23:42:21.829Z,11.56
2022-11-06T23:45:07.158Z,11.62
2022-11-06T23:47:34.230Z,11.68
2022-11-06T23:50:00.846Z,11.70
2022-11-06T23:52:27.825Z,11.68
2022-11-06T23:54:54.563Z,11.67
2022-11-06T23:57:23.557Z,11.64
2022-11-06T23:59:50.578Z,11.63
